Time;durP1;ratioP1;P1;durP2;ratioP2;P2;SDS_P1;SDS_P2;PMS_P1;PMS_P2;Temp;Humidity;BMP_temperature;BMP_pressure;BME280_temperature;BME280_humidity;BME280_pressure;Samples;Min_cycle;Max_cycle;Signal;HPM_P1;HPM_P2
2023/03/28 00:01:33;;;;;;;5.35;1.88;;;;;;;3.74;56.33;99928.75;5105570;28;20115;-71
2023/03/28 00:03:58;;;;;;;3.90;2.10;;;;;;;3.81;56.07;99951.25;5107174;28;20039;-72
2023/03/28 00:06:25;;;;;;;3.65;2.00;;;;;;;3.55;56.57;99922.97;5106598;28;20391;-72
2023/03/28 00:08:51;;;;;;;3.05;1.80;;;;;;;3.53;56.40;99923.06;5105648;28;20054;-72
2023/03/28 00:11:19;;;;;;;3.67;1.88;;;;;;;3.72;56.56;99960.69;5106909;28;20040;-72
2023/03/28 00:13:56;;;;;;;4.88;1.65;;;;;;;3.63;56.63;99955.97;5105503;28;20039;-72
2023/03/28 00:16:30;;;;;;;3.25;2.00;;;;;;;3.31;57.03;99925.41;5106902;28;20107;-72
2023/03/28 00:18:59;;;;;;;;;;;;;;;3.61;56.50;99967.63;5105895;28;20024;-72
2023/03/28 00:21:28;;;;;;;4.20;2.10;;;;;;;3.59;56.59;99966.88;5106742;28;20394;-72
2023/03/28 00:24:00;;;;;;;2.63;1.90;;;;;;;3.56;56.74;99972.38;5106203;28;20371;-72
2023/03/28 00:26:28;;;;;;;3.08;1.80;;;;;;;3.52;56.75;99962.91;5103041;28;20483;-72
2023/03/28 00:28:55;;;;;;;3.30;1.60;;;;;;;3.43;57.29;99969.66;5106328;28;20474;-72
2023/03/28 00:31:22;;;;;;;3.88;1.95;;;;;;;3.36;57.13;99960.41;5106650;28;20059;-72
2023/03/28 00:33:47;;;;;;;3.70;1.98;;;;;;;3.46;56.33;99963.31;5103943;28;20019;-72
2023/03/28 00:36:17;;;;;;;3.67;2.15;;;;;;;3.54;56.87;99992.81;5106511;28;20038;-73
2023/03/28 00:38:44;;;;;;;4.22;1.73;;;;;;;3.45;56.85;99980.19;5106576;27;20483;-73
2023/03/28 00:41:09;;;;;;;4.80;1.83;;;;;;;3.25;56.20;99948.78;5106595;28;20454;-72
2023/03/28 00:43:36;;;;;;;2.75;1.90;;;;;;;3.41;56.73;99987.47;5106564;28;20023;-72
2023/03/28 00:46:03;;;;;;;3.15;1.60;;;;;;;3.38;57.29;99994.75;5106045;28;20704;-72
2023/03/28 00:48:29;;;;;;;4.25;1.92;;;;;;;3.36;56.62;99991.34;5106396;28;20028;-72
2023/03/28 00:51:02;;;;;;;2.35;1.58;;;;;;;3.30;56.80;99982.00;5106202;28;20081;-72
2023/03/28 00:53:30;;;;;;;2.50;1.90;;;;;;;3.44;56.13;99989.91;5106767;28;20031;-72
2023/03/28 00:56:00;;;;;;;6.28;2.30;;;;;;;3.22;56.75;99991.38;5106761;28;20035;-72
2023/03/28 00:58:31;;;;;;;3.88;1.77;;;;;;;3.33;56.76;100000.38;5104131;28;20025;-73
2023/03/28 01:00:57;;;;;;;2.83;2.25;;;;;;;3.22;56.75;99994.03;5106492;28;20023;-72
2023/03/28 01:03:28;;;;;;;5.20;2.22;;;;;;;3.19;57.04;99983.63;5106431;28;20034;-73
2023/03/28 01:05:55;;;;;;;3.83;1.95;;;;;;;3.24;56.51;99989.47;5106448;28;20026;-72
2023/03/28 01:08:24;;;;;;;4.88;2.08;;;;;;;3.16;56.55;99971.41;5106442;28;20035;-72
2023/03/28 01:10:49;;;;;;;3.38;1.85;;;;;;;3.27;56.64;100010.47;5105972;28;20536;-72
2023/03/28 01:13:24;;;;;;;3.72;2.03;;;;;;;3.24;56.86;100013.31;5105034;28;20059;-72
2023/03/28 01:15:50;;;;;;;4.22;2.20;;;;;;;3.25;56.79;100009.72;5104668;28;20019;-72
2023/03/28 01:18:17;;;;;;;4.95;2.15;;;;;;;3.07;57.00;100002.94;5106193;28;20036;-72
2023/03/28 01:21:09;;;;;;;3.90;2.08;;;;;;;3.11;56.91;100037.09;5104373;28;20035;-72
2023/03/28 01:24:11;;;;;;;5.30;2.17;;;;;;;3.09;57.68;100035.50;5104791;28;20410;-72
2023/03/28 01:26:48;;;;;;;4.22;2.20;;;;;;;3.01;57.66;100038.59;5102685;28;20164;-73
2023/03/28 01:29:33;;;;;;;8.55;2.33;;;;;;;2.99;58.12;100045.78;5102929;28;20026;-72
2023/03/28 01:32:44;;;;;;;4.45;2.20;;;;;;;3.03;57.88;100042.00;5072492;28;20436;-73
2023/03/28 01:35:26;;;;;;;4.95;2.05;;;;;;;2.89;58.40;100052.59;5079360;28;20064;-75
2023/03/28 01:38:09;;;;;;;5.93;2.28;;;;;;;2.93;58.95;100056.75;5103858;28;20505;-75
2023/03/28 01:40:41;;;;;;;4.18;2.65;;;;;;;2.87;58.68;100056.28;5104378;28;20030;-76
2023/03/28 01:43:44;;;;;;;3.22;1.85;;;;;;;2.78;59.45;100056.84;5106241;28;20472;-75
2023/03/28 01:46:15;;;;;;;3.95;2.50;;;;;;;2.79;58.98;100069.13;5104485;28;20031;-75
2023/03/28 01:49:06;;;;;;;3.85;2.20;;;;;;;2.57;60.05;100044.91;5104995;28;20024;-75
2023/03/28 01:51:50;;;;;;;3.20;2.15;;;;;;;2.69;59.64;100079.44;5105255;28;20035;-75
2023/03/28 01:54:25;;;;;;;5.28;2.55;;;;;;;2.81;59.07;100085.78;5106484;28;20030;-75
2023/03/28 01:56:56;;;;;;;4.07;2.40;;;;;;;2.63;60.10;100077.13;5102658;28;20051;-75
2023/03/28 01:59:27;;;;;;;2.97;2.08;;;;;;;2.79;59.52;100087.66;5104917;28;20039;-76
2023/03/28 02:02:03;;;;;;;4.63;2.25;;;;;;;2.81;59.55;100085.78;5103827;28;20023;-75
2023/03/28 02:04:32;;;;;;;4.28;2.58;;;;;;;2.70;59.66;100082.94;5102221;28;20055;-76
2023/03/28 02:06:58;;;;;;;4.00;2.30;;;;;;;2.69;60.37;100097.09;5105357;28;20092;-75
2023/03/28 02:09:26;;;;;;;3.72;2.17;;;;;;;2.69;59.96;100091.78;5105548;28;20031;-75
2023/03/28 02:12:00;;;;;;;5.28;2.58;;;;;;;2.78;59.46;100099.19;5102086;28;20100;-76
2023/03/28 02:14:34;;;;;;;4.90;2.35;;;;;;;2.73;59.48;100096.81;5106146;28;20034;-75
2023/03/28 02:17:05;;;;;;;5.55;2.30;;;;;;;2.79;59.52;100111.50;5106058;28;20023;-75
2023/03/28 02:19:36;;;;;;;4.03;2.33;;;;;;;2.76;60.16;100109.88;5105194;28;20024;-76
2023/03/28 02:22:14;;;;;;;4.72;3.10;;;;;;;2.81;59.80;100106.97;5104131;28;20054;-72
2023/03/28 02:24:40;;;;;;;7.63;2.83;;;;;;;2.64;60.37;100094.72;5103256;28;20093;-72
2023/03/28 02:27:07;;;;;;;3.55;2.33;;;;;;;2.85;59.64;100119.06;5104696;28;20395;-72
2023/03/28 02:29:36;;;;;;;4.43;2.20;;;;;;;2.69;59.78;100099.75;5105858;28;20028;-75
2023/03/28 02:32:02;;;;;;;4.22;2.38;;;;;;;2.63;59.80;100110.69;5104459;28;20555;-76
2023/03/28 02:34:27;;;;;;;5.68;2.60;;;;;;;2.62;60.37;100120.44;5104144;28;20015;-75
2023/03/28 02:37:34;;;;;;;4.30;2.13;;;;;;;2.67;60.24;100131.59;5105543;28;20028;-76
2023/03/28 02:40:12;;;;;;;5.13;2.90;;;;;;;2.70;60.47;100138.53;5076808;28;20043;-76
2023/03/28 02:43:15;;;;;;;4.38;2.45;;;;;;;2.65;61.23;100143.22;5103545;28;20077;-73
2023/03/28 02:46:18;;;;;;;3.58;2.28;;;;;;;2.62;60.75;100138.09;5103770;28;20032;-72
2023/03/28 02:48:52;;;;;;;6.35;3.00;;;;;;;2.27;61.04;100087.22;5106460;28;20402;-72
2023/03/28 02:51:17;;;;;;;3.38;2.17;;;;;;;2.64;61.05;100144.19;5108927;28;20478;-73
2023/03/28 02:54:01;;;;;;;5.03;2.67;;;;;;;2.66;60.82;100144.94;5107512;28;20039;-73
2023/03/28 02:56:43;;;;;;;4.97;2.78;;;;;;;2.68;60.78;100154.50;5109225;28;20035;-72
2023/03/28 02:59:17;;;;;;;4.00;2.78;;;;;;;2.54;61.80;100143.84;5107534;28;20024;-73
2023/03/28 03:01:43;;;;;;;7.03;4.15;;;;;;;2.61;61.75;100160.25;5107842;28;20024;-73
2023/03/28 03:04:10;;;;;;;6.32;3.17;;;;;;;2.65;61.66;100151.16;5106608;28;20439;-73
2023/03/28 03:06:35;;;;;;;6.38;3.13;;;;;;;2.43;61.74;100131.22;5107803;28;20440;-72
2023/03/28 03:09:03;;;;;;;6.88;3.78;;;;;;;2.70;61.50;100155.25;5107868;28;20031;-73
2023/03/28 03:11:29;;;;;;;5.00;2.78;;;;;;;2.59;62.31;100151.53;5108925;28;20050;-72
2023/03/28 03:13:56;;;;;;;4.55;3.35;;;;;;;2.77;62.35;100167.19;5108681;28;20019;-73
2023/03/28 03:16:22;;;;;;;6.03;3.08;;;;;;;2.88;61.36;100171.84;5108978;28;20358;-72
2023/03/28 03:18:48;;;;;;;3.85;2.47;;;;;;;2.70;61.66;100146.47;5108430;28;20531;-73
2023/03/28 03:21:13;;;;;;;7.72;3.40;;;;;;;2.56;62.71;100157.84;5108742;28;20035;-72
2023/03/28 03:23:39;;;;;;;6.38;3.70;;;;;;;2.57;63.11;100171.94;5108872;28;20106;-72
2023/03/28 03:26:05;;;;;;;7.32;2.75;;;;;;;2.71;63.23;100179.94;5108548;28;20034;-72
2023/03/28 03:28:31;;;;;;;6.90;2.88;;;;;;;2.53;63.88;100165.09;5108755;28;20027;-72
2023/03/28 03:30:56;;;;;;;4.47;2.90;;;;;;;2.49;64.34;100182.97;5108465;28;20421;-72
2023/03/28 03:33:21;;;;;;;4.72;2.72;;;;;;;2.55;64.48;100181.75;5108913;28;20060;-73
2023/03/28 03:35:47;;;;;;;5.97;2.65;;;;;;;2.51;64.70;100186.38;5108342;28;20042;-73
2023/03/28 03:38:12;;;;;;;4.72;2.70;;;;;;;2.51;64.98;100186.38;5108348;28;20791;-73
2023/03/28 03:40:38;;;;;;;5.07;3.05;;;;;;;2.42;65.51;100169.22;5108615;28;20027;-73
2023/03/28 03:43:03;;;;;;;3.67;2.38;;;;;;;2.47;66.26;100195.44;5108434;28;20034;-72
2023/03/28 03:45:29;;;;;;;4.75;2.65;;;;;;;2.32;66.10;100157.47;5107060;28;20463;-72
2023/03/28 03:47:55;;;;;;;6.03;2.90;;;;;;;2.54;66.40;100199.44;5106507;28;20040;-73
2023/03/28 03:50:20;;;;;;;7.93;2.90;;;;;;;2.38;66.60;100182.72;5107015;28;20039;-72
2023/03/28 03:52:46;;;;;;;5.72;3.38;;;;;;;2.42;67.07;100199.28;5107777;28;20032;-72
2023/03/28 03:55:13;;;;;;;7.85;2.97;;;;;;;2.61;67.40;100216.66;5108866;28;20027;-76
2023/03/28 03:57:38;;;;;;;4.90;2.70;;;;;;;2.51;67.47;100202.25;5106547;28;20076;-76
2023/03/28 04:00:10;;;;;;;3.90;2.55;;;;;;;2.46;68.08;100225.50;5106088;28;20028;-75
2023/03/28 04:02:37;;;;;;;5.43;2.90;;;;;;;2.39;69.22;100222.31;5108852;28;20031;-76
2023/03/28 04:05:03;;;;;;;4.53;3.10;;;;;;;2.26;69.97;100205.41;5108392;27;20122;-76
2023/03/28 04:07:31;;;;;;;5.80;2.97;;;;;;;2.30;70.19;100232.56;5106952;28;20107;-75
2023/03/28 04:09:57;;;;;;;6.65;2.80;;;;;;;2.26;71.19;100237.16;5106663;28;20055;-75
2023/03/28 04:12:22;;;;;;;3.55;2.88;;;;;;;2.12;71.84;100233.56;5106907;28;20066;-75
2023/03/28 04:14:48;;;;;;;4.95;2.92;;;;;;;2.20;72.27;100234.03;5107704;28;20027;-75
2023/03/28 04:17:14;;;;;;;4.90;2.65;;;;;;;2.12;73.17;100249.44;5108511;28;20028;-75
2023/03/28 04:19:40;;;;;;;7.85;3.38;;;;;;;2.13;72.74;100230.00;5108274;28;20022;-75
2023/03/28 04:22:07;;;;;;;6.25;3.88;;;;;;;2.18;73.58;100262.34;5108236;28;20027;-77
2023/03/28 04:24:36;;;;;;;4.95;2.97;;;;;;;2.01;74.14;100244.75;5107867;28;20053;-77
2023/03/28 04:27:02;;;;;;;6.68;4.00;;;;;;;1.84;74.64;100223.63;5106768;28;20031;-77
2023/03/28 04:29:30;;;;;;;5.32;3.13;;;;;;;2.01;74.69;100259.78;5106390;28;20043;-78
2023/03/28 04:31:57;;;;;;;8.18;3.53;;;;;;;2.06;75.24;100279.72;5107473;28;20557;-76
2023/03/28 04:34:29;;;;;;;5.95;3.53;;;;;;;1.97;75.96;100266.16;5108212;28;20034;-77
2023/03/28 04:37:01;;;;;;;7.20;4.57;;;;;;;2.01;75.79;100292.38;5105092;28;20023;-77
2023/03/28 04:39:32;;;;;;;7.78;3.88;;;;;;;1.99;76.20;100288.94;5107492;28;20031;-77
2023/03/28 04:42:00;;;;;;;6.80;3.90;;;;;;;2.00;76.23;100306.50;5105616;28;20028;-73
2023/03/28 04:44:29;;;;;;;8.63;4.13;;;;;;;2.05;76.50;100301.84;5107621;28;20031;-73
2023/03/28 04:46:57;;;;;;;6.15;3.90;;;;;;;1.84;77.03;100288.91;5107095;28;20050;-73
2023/03/28 04:49:22;;;;;;;7.10;3.92;;;;;;;1.88;78.01;100304.53;5103904;28;21212;-73
2023/03/28 04:51:49;;;;;;;7.57;4.20;;;;;;;1.91;77.64;100306.97;5104146;28;20680;-73
2023/03/28 04:54:16;;;;;;;6.18;4.18;;;;;;;1.98;77.57;100318.09;5106970;28;20114;-72
2023/03/28 04:56:44;;;;;;;7.07;3.90;;;;;;;2.07;78.68;100336.97;5106742;28;20327;-73
2023/03/28 04:59:10;;;;;;;7.00;4.20;;;;;;;2.00;78.77;100322.38;5106602;28;20111;-73
2023/03/28 05:01:36;;;;;;;6.95;3.97;;;;;;;2.09;78.46;100343.06;5104854;28;20452;-73
2023/03/28 05:04:01;;;;;;;6.40;4.15;;;;;;;2.00;79.19;100335.59;5107006;27;20028;-73
2023/03/28 05:06:27;;;;;;;7.47;4.20;;;;;;;1.92;79.71;100327.22;5105419;27;20020;-73
2023/03/28 05:08:52;;;;;;;6.90;4.32;;;;;;;2.12;78.72;100342.88;5106911;28;20104;-73
2023/03/28 05:11:18;;;;;;;9.00;4.32;;;;;;;1.97;78.61;100308.47;5106732;28;20044;-73
2023/03/28 05:13:43;;;;;;;7.88;4.45;;;;;;;1.93;79.63;100323.63;5106842;28;20027;-73
2023/03/28 05:16:09;;;;;;;8.60;5.15;;;;;;;2.19;79.31;100349.56;5106486;28;20542;-73
2023/03/28 05:18:34;;;;;;;7.68;5.10;;;;;;;2.11;79.52;100335.91;5106443;28;20467;-73
2023/03/28 05:21:00;;;;;;;11.38;4.90;;;;;;;2.23;79.08;100344.97;5105053;28;20050;-72
2023/03/28 05:23:25;;;;;;;9.57;5.38;;;;;;;2.24;78.65;100350.19;5101615;27;20035;-73
2023/03/28 05:25:52;;;;;;;9.90;4.72;;;;;;;2.29;78.84;100363.16;5105499;28;20031;-73
2023/03/28 05:28:18;;;;;;;7.18;5.18;;;;;;;2.25;79.85;100365.13;5106349;27;20032;-73
2023/03/28 05:30:44;;;;;;;10.27;4.88;;;;;;;2.13;79.42;100341.94;5105455;28;20027;-73
2023/03/28 05:33:10;;;;;;;13.05;5.30;;;;;;;2.35;80.11;100382.19;5106110;28;20036;-73
2023/03/28 05:35:36;;;;;;;8.93;4.95;;;;;;;2.47;78.63;100385.97;5104983;28;20088;-74
2023/03/28 05:38:05;;;;;;;6.72;4.82;;;;;;;2.53;78.58;100384.78;5102117;28;20085;-74
2023/03/28 05:40:30;;;;;;;7.85;4.63;;;;;;;2.44;78.13;100372.91;5106025;28;20503;-74
2023/03/28 05:42:56;;;;;;;11.52;5.47;;;;;;;2.69;77.28;100405.06;5106563;28;20027;-79
2023/03/28 05:45:22;;;;;;;10.77;5.10;;;;;;;2.66;77.57;100402.59;5105122;28;20027;-78
2023/03/28 05:47:53;;;;;;;11.52;5.80;;;;;;;2.69;76.62;100391.84;5105904;28;20070;-78
2023/03/28 05:50:20;;;;;;;7.10;4.97;;;;;;;2.75;77.23;100404.75;5104880;28;20503;-78
2023/03/28 05:52:45;;;;;;;10.25;5.47;;;;;;;2.77;77.25;100386.97;5105917;28;20041;-74
2023/03/28 05:55:11;;;;;;;10.45;5.30;;;;;;;2.97;76.09;100404.41;5105122;28;20024;-73
2023/03/28 05:57:36;;;;;;;7.03;4.85;;;;;;;3.11;74.54;100397.41;5103740;28;20059;-73
2023/03/28 06:00:13;;;;;;;9.52;5.43;;;;;;;3.19;75.77;100412.88;5104085;28;20326;-73
2023/03/28 06:02:39;;;;;;;6.38;4.80;;;;;;;3.40;73.17;100414.28;5099796;28;20038;-73
2023/03/28 06:05:06;;;;;;;9.45;4.97;;;;;;;3.41;72.68;100394.78;5105409;28;20672;-73
2023/03/28 06:07:32;;;;;;;7.15;5.63;;;;;;;3.44;72.55;100399.91;5104628;28;20034;-74
2023/03/28 06:09:58;;;;;;;7.95;5.53;;;;;;;3.51;72.71;100415.38;5105667;28;20382;-74
2023/03/28 06:12:23;;;;;;;13.45;5.13;;;;;;;3.62;71.25;100405.03;5104346;28;20039;-74
2023/03/28 06:14:49;;;;;;;7.82;4.97;;;;;;;4.07;67.99;100426.19;5104113;28;20027;-74
2023/03/28 06:17:15;;;;;;;7.70;5.22;;;;;;;3.99;69.13;100428.44;5104599;28;20100;-74
2023/03/28 06:19:40;;;;;;;7.50;4.70;;;;;;;4.07;68.42;100434.13;5104997;28;20047;-73
2023/03/28 06:22:06;;;;;;;7.90;4.53;;;;;;;4.24;67.19;100438.44;5105996;28;20473;-74
2023/03/28 06:24:31;;;;;;;5.75;4.50;;;;;;;4.16;67.17;100419.50;5110804;28;20040;-74
2023/03/28 06:26:57;;;;;;;6.47;4.63;;;;;;;4.45;66.40;100440.66;5108577;28;20110;-74
2023/03/28 06:29:23;;;;;;;10.05;4.88;;;;;;;4.55;65.51;100435.66;5110348;28;20424;-73
2023/03/28 06:31:48;;;;;;;8.25;5.28;;;;;;;4.49;65.79;100420.09;5109941;28;20452;-74
2023/03/28 06:34:14;;;;;;;8.00;4.90;;;;;;;4.83;63.25;100430.31;5109373;28;20043;-74
2023/03/28 06:36:39;;;;;;;7.10;4.60;;;;;;;4.90;63.42;100447.59;5110210;28;20671;-74
2023/03/28 06:39:05;;;;;;;6.93;4.63;;;;;;;4.94;63.95;100441.16;5108614;28;20031;-74
2023/03/28 06:41:30;;;;;;;9.00;4.45;;;;;;;5.04;63.58;100444.94;5110172;28;20020;-75
2023/03/28 06:43:56;;;;;;;5.32;3.65;;;;;;;5.28;60.05;100446.00;5110105;27;20042;-73
2023/03/28 06:46:21;;;;;;;5.32;4.18;;;;;;;5.19;60.50;100456.41;5109738;28;20051;-73
2023/03/28 06:48:47;;;;;;;4.88;4.15;;;;;;;5.15;61.50;100458.38;5107974;28;20027;-73
2023/03/28 06:51:12;;;;;;;7.25;4.13;;;;;;;5.38;61.74;100460.44;5109165;28;20020;-73
2023/03/28 06:53:38;;;;;;;6.05;4.55;;;;;;;5.77;59.36;100468.47;5107581;28;20560;-73
2023/03/28 06:56:05;;;;;;;7.78;4.20;;;;;;;5.84;57.89;100464.47;5108095;28;20038;-73
2023/03/28 06:58:31;;;;;;;5.68;4.10;;;;;;;5.78;57.79;100450.72;5106315;28;20538;-73
2023/03/28 07:01:00;;;;;;;5.63;4.03;;;;;;;5.82;57.57;100460.22;5109839;28;20122;-73
2023/03/28 07:03:25;;;;;;;6.65;4.32;;;;;;;5.75;58.03;100459.75;5108631;28;20049;-73
2023/03/28 07:05:51;;;;;;;5.90;4.00;;;;;;;5.76;57.31;100436.63;5109639;27;20433;-73
2023/03/28 07:08:16;;;;;;;6.72;4.25;;;;;;;6.06;57.39;100469.25;5108673;28;20110;-73
2023/03/28 07:10:42;;;;;;;6.88;4.22;;;;;;;6.25;55.68;100485.69;5109703;28;20019;-73
2023/03/28 07:13:08;;;;;;;6.28;4.28;;;;;;;6.12;56.16;100476.81;5108229;28;20023;-73
2023/03/28 07:15:34;;;;;;;18.52;4.78;;;;;;;6.17;55.92;100470.25;5108190;28;20045;-73
2023/03/28 07:17:59;;;;;;;7.43;3.88;;;;;;;6.36;56.10;100475.16;5109618;28;20025;-73
2023/03/28 07:20:26;;;;;;;5.13;3.55;;;;;;;6.36;56.33;100473.34;5109560;28;20031;-73
2023/03/28 07:22:52;;;;;;;5.18;3.55;;;;;;;6.52;55.38;100460.69;5107693;28;20031;-74
2023/03/28 07:25:19;;;;;;;4.47;3.28;;;;;;;6.95;54.35;100487.88;5109871;27;20383;-73
2023/03/28 07:27:44;;;;;;;5.95;4.05;;;;;;;6.53;54.39;100432.22;5108551;28;20027;-73
2023/03/28 07:30:10;;;;;;;7.90;3.58;;;;;;;6.97;52.84;100510.78;5109122;28;20035;-73
2023/03/28 07:32:36;;;;;;;4.63;3.60;;;;;;;6.93;54.11;100501.31;5109644;28;20032;-73
2023/03/28 07:35:06;;;;;;;5.47;3.92;;;;;;;7.08;53.88;100502.03;5105932;28;20543;-73
2023/03/28 07:37:34;;;;;;;5.80;4.00;;;;;;;7.19;53.78;100483.44;5108051;28;20028;-73
2023/03/28 07:40:00;;;;;;;4.70;3.10;;;;;;;7.48;54.30;100495.56;5107655;28;20020;-73
2023/03/28 07:42:26;;;;;;;5.25;3.65;;;;;;;7.69;52.63;100509.16;5109626;28;20050;-73
2023/03/28 07:44:53;;;;;;;4.22;2.90;;;;;;;7.87;52.04;100506.00;5107452;28;20028;-73
2023/03/28 07:47:18;;;;;;;6.78;3.15;;;;;;;8.08;51.85;100508.91;5109340;28;20526;-73
2023/03/28 07:49:44;;;;;;;3.83;2.90;;;;;;;8.33;49.92;100515.00;5107626;28;20131;-73
2023/03/28 07:52:10;;;;;;;4.95;3.25;;;;;;;8.41;49.49;100509.06;5107952;28;20024;-73
2023/03/28 07:54:36;;;;;;;5.35;3.08;;;;;;;8.54;48.62;100497.31;5108231;28;20039;-73
2023/03/28 07:57:03;;;;;;;5.05;2.80;;;;;;;8.91;48.59;100508.72;5106184;28;20027;-73
2023/03/28 07:59:28;;;;;;;6.10;3.40;;;;;;;9.54;47.03;100494.72;5104329;28;20027;-72
2023/03/28 08:01:54;;;;;;;4.45;3.03;;;;;;;10.02;46.42;100504.94;5106850;28;20039;-72
2023/03/28 08:04:20;;;;;;;3.58;2.78;;;;;;;10.85;43.67;100506.78;5107706;28;20032;-72
2023/03/28 08:06:46;;;;;;;7.25;2.60;;;;;;;11.67;40.73;100486.97;5108138;28;20034;-72
2023/03/28 08:09:15;;;;;;;3.00;1.98;;;;;;;12.42;39.93;100506.88;5103210;28;20020;-71
2023/03/28 08:11:42;;;;;;;3.08;2.38;;;;;;;13.38;38.30;100503.00;5139141;27;20057;-71
2023/03/28 08:14:10;;;;;;;3.88;2.83;;;;;;;12.88;39.17;100506.13;5107327;27;20528;-72
2023/03/28 08:16:36;;;;;;;4.40;3.30;;;;;;;12.54;38.59;100510.28;5106464;28;20633;-72
2023/03/28 08:19:02;;;;;;;4.78;2.85;;;;;;;12.82;38.28;100509.38;5107503;28;20030;-72
2023/03/28 08:21:31;;;;;;;4.70;2.90;;;;;;;12.58;37.74;100504.44;5106640;28;20055;-71
2023/03/28 08:23:59;;;;;;;5.72;2.45;;;;;;;11.83;39.11;100486.44;5107249;28;20043;-72
2023/03/28 08:26:26;;;;;;;5.03;2.85;;;;;;;12.89;37.33;100486.25;5108040;28;20443;-72
2023/03/28 08:28:53;;;;;;;3.63;2.75;;;;;;;12.98;36.44;100490.78;5108251;28;20035;-72
2023/03/28 08:31:22;;;;;;;5.15;3.03;;;;;;;12.93;38.31;100485.84;5105439;28;20947;-71
2023/03/28 08:33:50;;;;;;;3.95;2.45;;;;;;;14.25;35.62;100496.16;5105683;28;20063;-72
2023/03/28 08:36:16;;;;;;;2.92;2.10;;;;;;;14.87;34.26;100498.69;5107194;28;20449;-72
2023/03/28 08:38:42;;;;;;;3.80;2.25;;;;;;;15.63;33.08;100492.44;5105139;28;20168;-72
2023/03/28 08:41:24;;;;;;;3.08;2.13;;;;;;;16.18;32.54;100471.13;5101544;28;20531;-72
2023/03/28 08:44:08;;;;;;;4.25;2.03;;;;;;;16.65;31.70;100495.75;5106973;28;20034;-72
2023/03/28 08:46:37;;;;;;;3.88;2.05;;;;;;;16.35;32.06;100489.06;5106739;28;20096;-72
2023/03/28 08:49:09;;;;;;;3.92;1.95;;;;;;;16.59;31.99;100491.00;5105302;28;20032;-73
2023/03/28 08:51:46;;;;;;;3.47;1.60;;;;;;;16.57;31.30;100488.44;5105362;28;20041;-73
2023/03/28 08:54:27;;;;;;;5.60;2.58;;;;;;;15.37;32.20;100498.91;5107294;28;20103;-72
2023/03/28 08:56:58;;;;;;;4.30;1.80;;;;;;;15.12;33.21;100484.38;5106648;28;20026;-72
2023/03/28 08:59:33;;;;;;;3.03;1.80;;;;;;;14.87;33.21;100505.97;5105800;28;20582;-72
2023/03/28 09:01:58;;;;;;;2.58;1.45;;;;;;;15.34;32.80;100501.88;5105098;28;20398;-71
2023/03/28 09:04:33;;;;;;;3.55;1.42;;;;;;;15.52;32.69;100502.69;5107184;28;20031;-72
2023/03/28 09:07:08;;;;;;;2.72;1.50;;;;;;;16.04;32.04;100500.69;5105003;28;20072;-72
2023/03/28 09:09:41;;;;;;;4.80;1.30;;;;;;;16.39;31.96;100508.53;5105369;28;20025;-71
2023/03/28 09:12:15;;;;;;;4.50;1.40;;;;;;;15.83;31.36;100506.53;5106702;28;20047;-72
2023/03/28 09:15:06;;;;;;;3.17;1.88;;;;;;;13.66;34.44;100526.31;5106804;28;20043;-71
2023/03/28 09:17:57;;;;;;;3.22;1.75;;;;;;;13.28;36.08;100522.91;5106009;28;20636;-72
2023/03/28 09:20:44;;;;;;;5.30;1.52;;;;;;;13.31;36.13;100510.00;5105547;28;20432;-72
2023/03/28 09:23:17;;;;;;;3.47;1.50;;;;;;;13.58;35.17;100534.25;5104743;28;20463;-72
2023/03/28 09:26:01;;;;;;;1.98;1.20;;;;;;;13.74;34.54;100526.38;5104567;28;20039;-73
2023/03/28 09:28:45;;;;;;;1.77;1.38;;;;;;;13.83;34.58;100516.53;5106935;28;20569;-72
2023/03/28 09:31:14;;;;;;;4.18;1.40;;;;;;;13.28;35.00;100504.03;5106827;28;20024;-72
2023/03/28 09:33:44;;;;;;;3.50;1.65;;;;;;;12.76;35.76;100521.56;5107517;28;20107;-72
2023/03/28 09:36:26;;;;;;;2.58;1.42;;;;;;;12.42;37.02;100525.72;5105422;28;20477;-73
2023/03/28 09:38:57;;;;;;;3.00;1.40;;;;;;;11.44;38.38;100504.25;5106725;28;20133;-72
2023/03/28 09:41:48;;;;;;;3.28;2.05;;;;;;;11.19;39.06;100539.63;5107697;28;20041;-72
2023/03/28 09:44:17;;;;;;;2.95;1.52;;;;;;;10.45;41.22;100534.44;5106008;28;20059;-72
2023/03/28 09:46:47;;;;;;;2.20;1.67;;;;;;;9.93;41.88;100527.13;5107178;28;20804;-72
2023/03/28 09:49:16;;;;;;;3.58;1.77;;;;;;;9.82;40.42;100516.47;5106724;28;20032;-72
2023/03/28 09:51:42;;;;;;;2.28;1.20;;;;;;;9.51;40.85;100519.06;5107410;28;20031;-72
2023/03/28 09:54:08;;;;;;;3.47;1.33;;;;;;;9.19;41.66;100534.97;5107681;28;20076;-72
2023/03/28 09:56:45;;;;;;;2.25;1.10;;;;;;;8.95;42.34;100534.25;5107465;28;20050;-72
2023/03/28 09:59:31;;;;;;;2.35;1.40;;;;;;;9.10;43.36;100519.69;5105985;28;20042;-72
2023/03/28 10:01:59;;;;;;;2.42;1.60;;;;;;;9.90;41.76;100522.03;5106899;28;20086;-72
2023/03/28 10:04:28;;;;;;;1.98;1.23;;;;;;;10.44;40.78;100512.13;5107765;28;20061;-73
2023/03/28 10:07:15;;;;;;;2.28;1.27;;;;;;;10.29;41.04;100505.38;5107639;28;20024;-72
2023/03/28 10:09:56;;;;;;;3.15;1.35;;;;;;;10.27;41.34;100527.91;5107110;28;20028;-72
2023/03/28 10:12:24;;;;;;;2.28;1.20;;;;;;;10.37;39.67;100489.50;5106425;28;20047;-71
2023/03/28 10:14:49;;;;;;;2.38;1.20;;;;;;;10.48;39.37;100502.00;5107411;28;20565;-72
2023/03/28 10:17:28;;;;;;;2.20;1.08;;;;;;;10.39;40.30;100506.31;5107487;28;20074;-73
2023/03/28 10:20:00;;;;;;;2.95;1.35;;;;;;;11.19;42.03;100518.97;5105546;28;20023;-73
2023/03/28 10:22:34;;;;;;;3.35;0.77;;;;;;;10.70;40.62;100536.72;5107027;28;20038;-72
2023/03/28 10:25:04;;;;;;;3.90;1.05;;;;;;;10.20;40.35;100524.06;5104135;28;20023;-72
2023/03/28 10:27:34;;;;;;;2.45;0.95;;;;;;;9.84;41.60;100497.59;5107687;28;20023;-72
2023/03/28 10:30:25;;;;;;;3.15;1.35;;;;;;;9.61;42.33;100525.38;5106701;28;20031;-72
2023/03/28 10:33:22;;;;;;;2.20;1.17;;;;;;;9.03;44.22;100508.59;5109400;28;20020;-73
2023/03/28 10:36:46;;;;;;;2.80;1.08;;;;;;;9.01;44.39;100518.59;5104871;28;20031;-72
2023/03/28 10:39:27;;;;;;;2.75;1.02;;;;;;;8.99;45.53;100519.66;5096006;28;20034;-72
2023/03/28 10:42:01;;;;;;;4.22;1.00;;;;;;;9.09;46.06;100520.63;5107141;28;20475;-71
2023/03/28 10:44:31;;;;;;;2.42;1.08;;;;;;;9.13;43.76;100506.06;5106923;28;20035;-72
2023/03/28 10:47:02;;;;;;;2.67;1.25;;;;;;;9.21;44.98;100501.81;5102547;28;20530;-72
2023/03/28 10:49:36;;;;;;;2.97;1.10;;;;;;;9.24;43.90;100512.28;5104691;28;20024;-71
2023/03/28 10:52:09;;;;;;;;;;;;;;;9.38;44.80;100508.47;5107923;28;20024;-72
2023/03/28 10:54:38;;;;;;;5.75;1.00;;;;;;;9.33;42.51;100521.38;5107660;28;19912;-72
2023/03/28 10:57:24;;;;;;;1.73;1.02;;;;;;;9.10;41.71;100504.47;5107331;28;20065;-71
2023/03/28 11:00:08;;;;;;;4.43;1.02;;;;;;;8.80;42.43;100482.78;5107018;28;20141;-71
2023/03/28 11:02:57;;;;;;;4.10;1.00;;;;;;;8.92;43.91;100500.56;5107715;28;20356;-72
2023/03/28 11:05:41;;;;;;;3.00;0.90;;;;;;;8.87;43.33;100515.28;5105011;28;20454;-72
2023/03/28 11:08:15;;;;;;;4.63;1.30;;;;;;;8.92;42.65;100502.38;5106267;28;20026;-72
2023/03/28 11:11:09;;;;;;;3.03;1.13;;;;;;;8.93;42.47;100493.38;5108919;28;20032;-72
2023/03/28 11:13:38;;;;;;;3.50;1.10;;;;;;;8.95;42.97;100484.28;5109015;28;20024;-73
2023/03/28 11:16:06;;;;;;;1.48;0.82;;;;;;;8.86;43.49;100493.03;5110072;28;20036;-72
2023/03/28 11:19:01;;;;;;;4.13;2.05;;;;;;;9.01;41.18;100488.28;5110604;28;20382;-71
2023/03/28 11:21:43;;;;;;;;;;;;;;;9.04;41.95;100488.91;5094233;28;20380;-72
2023/03/28 11:24:17;;;;;;;2.45;1.17;;;;;;;9.12;41.53;100486.47;5107035;28;19922;-72
2023/03/28 11:26:59;;;;;;;2.22;1.10;;;;;;;8.96;40.15;100487.78;5110971;28;20023;-71
2023/03/28 11:29:55;;;;;;;3.60;1.42;;;;;;;8.92;40.80;100505.06;5110737;28;20036;-71
2023/03/28 11:32:26;;;;;;;3.40;1.42;;;;;;;8.83;39.84;100484.38;5111083;28;20027;-72
2023/03/28 11:35:22;;;;;;;5.30;0.93;;;;;;;8.73;40.44;100499.44;5110497;28;20024;-72
2023/03/28 11:37:58;;;;;;;2.35;1.30;;;;;;;8.85;41.10;100483.31;5111223;28;20414;-72
2023/03/28 11:40:35;;;;;;;3.47;1.42;;;;;;;8.80;39.51;100489.94;5111031;28;20038;-72
2023/03/28 11:43:04;;;;;;;2.85;0.93;;;;;;;8.69;40.09;100468.56;5110271;27;20024;-71
2023/03/28 11:45:38;;;;;;;3.30;1.27;;;;;;;8.97;40.10;100484.16;5109621;28;20035;-72
2023/03/28 11:48:07;;;;;;;3.28;0.75;;;;;;;9.21;38.86;100490.25;5107668;28;20055;-76
2023/03/28 11:51:06;;;;;;;10.90;1.75;;;;;;;9.21;38.52;100474.19;5108025;28;20023;-75
2023/03/28 11:53:53;;;;;;;6.75;1.27;;;;;;;9.27;38.15;100476.38;5109093;28;20076;-75